Time;durP1;ratioP1;P1;durP2;ratioP2;P2;SDS_P1;SDS_P2;PMS_P1;PMS_P2;Temp;Humidity;BMP_temperature;BMP_pressure;BME280_temperature;BME280_humidity;BME280_pressure;Samples;Min_cycle;Max_cycle;Signal;HPM_P1;HPM_P2
2023/01/15 00:01:37;;;;;;;;;0.00;0.00;;;;;9.70;78.27;100205.91;5017428;28;45412;-75
2023/01/15 00:04:05;;;;;;;;;0.00;0.00;;;;;9.63;78.04;100221.44;5017270;28;46105;-76
2023/01/15 00:06:34;;;;;;;;;0.75;0.00;;;;;9.47;77.95;100188.34;5017405;28;45296;-77
2023/01/15 00:08:59;;;;;;;;;0.00;0.00;;;;;9.58;77.58;100203.88;5017431;28;45285;-76
2023/01/15 00:11:25;;;;;;;;;1.00;1.00;;;;;9.53;78.07;100197.91;5017198;28;45609;-75
2023/01/15 00:13:51;;;;;;;;;0.00;0.00;;;;;9.62;76.78;100217.00;5017312;28;45335;-76
2023/01/15 00:16:20;;;;;;;;;0.00;0.00;;;;;9.57;77.13;100208.38;5016506;28;45541;-76
2023/01/15 00:19:06;;;;;;;;;0.50;0.00;;;;;9.42;75.91;100179.72;5017205;28;45409;-75
2023/01/15 00:21:32;;;;;;;;;1.00;1.00;;;;;9.36;76.78;100186.22;4998920;28;47045;-76
2023/01/15 00:29:27;;;;;;;;;0.00;0.00;;;;;9.45;77.47;100199.13;5016227;28;45456;-76
2023/01/15 05:30:13;;;;;;;;;0.00;0.00;;;;;8.09;67.32;100337.28;5019579;28;45656;-75
2023/01/15 05:32:38;;;;;;;;;0.00;0.00;;;;;8.01;67.30;100328.72;5011252;28;45690;-75
2023/01/15 05:35:04;;;;;;;;;0.00;0.00;;;;;8.01;66.96;100320.72;5016621;28;45301;-75
2023/01/15 05:37:30;;;;;;;;;0.00;0.00;;;;;7.91;66.57;100327.41;5016402;28;45554;-76
2023/01/15 05:39:55;;;;;;;;;0.00;0.00;;;;;7.99;66.45;100343.97;5015953;28;45371;-75
2023/01/15 05:42:20;;;;;;;;;0.00;0.00;;;;;8.02;66.24;100342.94;5015796;28;45395;-76
2023/01/15 05:44:46;;;;;;;;;0.75;0.00;;;;;8.03;66.11;100358.91;5013254;28;45415;-74
2023/01/15 05:47:13;;;;;;;;;0.00;0.00;;;;;8.02;65.87;100372.31;5014769;28;45583;-74
2023/01/15 05:49:38;;;;;;;;;0.00;0.00;;;;;7.81;66.72;100332.25;5015785;28;45285;-76
2023/01/15 05:52:04;;;;;;;;;0.00;0.00;;;;;7.97;66.43;100367.16;5016305;28;45327;-74
2023/01/15 05:54:32;;;;;;;;;0.00;0.00;;;;;7.95;66.12;100367.22;5016078;28;45501;-75
2023/01/15 05:56:58;;;;;;;;;0.50;0.00;;;;;7.84;66.30;100352.56;5015760;28;45423;-76
2023/01/15 05:59:27;;;;;;;;;0.00;0.00;;;;;7.98;66.66;100375.13;5015190;28;45335;-76
2023/01/15 06:01:53;;;;;;;;;0.00;0.00;;;;;8.01;66.45;100390.13;5015245;28;45296;-76
2023/01/15 06:04:20;;;;;;;;;0.00;0.00;;;;;7.90;66.26;100371.91;5015456;28;45172;-75
2023/01/15 06:06:47;;;;;;;;;0.00;0.00;;;;;7.92;64.66;100387.81;5015244;28;45233;-76
2023/01/15 06:09:13;;;;;;;;;0.00;0.00;;;;;7.91;65.22;100407.47;5015238;28;46512;-75
2023/01/15 06:11:38;;;;;;;;;0.00;0.00;;;;;7.99;65.72;100427.53;5015064;28;45469;-75
2023/01/15 06:14:04;;;;;;;;;0.00;0.00;;;;;7.98;65.38;100417.81;5015357;28;45472;-76
2023/01/15 06:16:30;;;;;;;;;0.00;0.00;;;;;7.89;64.54;100406.66;5014690;28;45451;-75
2023/01/15 06:19:03;;;;;;;;;0.50;0.00;;;;;7.96;64.98;100401.00;5015505;28;46522;-76
2023/01/15 06:21:29;;;;;;;;;0.00;0.00;;;;;7.84;64.68;100397.94;5014993;28;45279;-76
2023/01/15 06:23:54;;;;;;;;;0.00;0.00;;;;;7.88;65.02;100421.78;5015584;28;45378;-75
2023/01/15 06:26:20;;;;;;;;;1.00;0.00;;;;;7.72;65.25;100410.00;5018090;28;45332;-76
2023/01/15 06:28:46;;;;;;;;;0.00;0.00;;;;;7.63;65.76;100415.69;5022189;28;45336;-75
2023/01/15 06:31:14;;;;;;;;;1.75;0.00;;;;;7.62;65.77;100437.09;5014358;28;45261;-75
2023/01/15 06:33:40;;;;;;;;;0.00;0.00;;;;;7.59;65.92;100414.91;4997179;28;45266;-75
2023/01/15 06:36:09;;;;;;;;;0.00;0.00;;;;;7.63;66.43;100433.50;5014905;28;45432;-74
2023/01/15 06:38:35;;;;;;;;;0.00;0.00;;;;;7.56;66.19;100430.19;5014888;28;45336;-76
2023/01/15 06:41:02;;;;;;;;;0.00;0.00;;;;;7.64;66.14;100437.91;5014743;28;45569;-75
2023/01/15 06:48:56;;;;;;;;;1.00;0.00;;;;;7.26;66.80;100396.69;5017972;28;45424;-76
2023/01/15 06:51:22;;;;;;;;;0.00;0.00;;;;;7.55;66.15;100447.13;5017783;28;45286;-74
2023/01/15 06:53:47;;;;;;;;;0.00;0.00;;;;;7.51;66.63;100457.03;5018390;28;45174;-75
2023/01/15 06:56:14;;;;;;;;;0.00;0.00;;;;;7.52;66.55;100468.56;5017880;28;45174;-74
2023/01/15 06:58:40;;;;;;;;;1.00;0.00;;;;;7.48;66.66;100473.16;5017531;28;45533;-75
2023/01/15 07:01:08;;;;;;;;;0.00;0.00;;;;;7.39;67.21;100488.63;5017684;28;45489;-76
2023/01/15 07:03:34;;;;;;;;;0.00;0.00;;;;;7.35;66.79;100471.00;5017571;28;45384;-75
2023/01/15 07:06:05;;;;;;;;;0.00;0.00;;;;;7.28;66.82;100464.16;5017719;28;45503;-76
2023/01/15 07:08:30;;;;;;;;;0.00;0.00;;;;;7.25;66.70;100482.91;5017702;28;46371;-77
2023/01/15 07:11:01;;;;;;;;;0.00;0.00;;;;;7.35;67.39;100492.34;5017996;28;45362;-75
2023/01/15 07:13:26;;;;;;;;;0.00;0.00;;;;;7.32;67.79;100476.44;5017738;28;45652;-75
2023/01/15 07:15:52;;;;;;;;;0.00;0.00;;;;;7.19;67.67;100468.91;5017650;28;45541;-76
2023/01/15 07:18:17;;;;;;;;;0.00;0.00;;;;;7.31;67.32;100512.94;5017286;28;46286;-75
2023/01/15 07:20:42;;;;;;;;;0.25;0.00;;;;;7.23;67.47;100497.16;4999333;28;46062;-76
2023/01/15 07:23:08;;;;;;;;;0.00;0.00;;;;;7.12;67.80;100483.38;5017595;28;45403;-75
2023/01/15 07:25:34;;;;;;;;;0.00;0.00;;;;;7.19;67.75;100492.03;5017202;28;45151;-76
2023/01/15 07:27:59;;;;;;;;;0.00;0.00;;;;;7.17;67.58;100502.75;4995714;28;46881;-75
2023/01/15 07:30:24;;;;;;;;;0.00;0.00;;;;;7.26;68.00;100508.66;4990467;28;45821;-76
2023/01/15 07:32:50;;;;;;;;;0.50;0.00;;;;;7.20;67.51;100505.31;5016863;28;45442;-78
2023/01/15 07:35:15;;;;;;;;;0.00;0.00;;;;;7.27;67.82;100519.28;4999264;28;46461;-76
2023/01/15 07:37:42;;;;;;;;;0.00;0.00;;;;;7.23;67.80;100509.63;5017222;28;46535;-80
2023/01/15 07:40:09;;;;;;;;;0.00;0.00;;;;;7.13;68.15;100519.78;5017411;28;45297;-74
2023/01/15 07:50:45;;;;;;;;;0.00;0.00;;;;;7.18;68.52;100496.47;5020159;28;45431;-76
2023/01/15 07:53:11;;;;;;;;;0.75;0.00;;;;;7.27;68.66;100495.28;5019402;28;45369;-75
2023/01/15 07:55:36;;;;;;;;;0.00;0.00;;;;;7.44;68.52;100518.66;5017082;28;45293;-77
2023/01/15 07:58:02;;;;;;;;;0.00;0.00;;;;;7.42;68.32;100521.38;5017515;28;46340;-75
2023/01/15 08:00:28;;;;;;;;;0.00;0.00;;;;;7.20;68.81;100489.31;5017097;28;45438;-75
2023/01/15 08:02:53;;;;;;;;;2.00;0.00;;;;;7.39;69.20;100509.97;5016408;28;45313;-77
2023/01/15 08:05:19;;;;;;;;;0.00;0.00;;;;;7.28;68.79;100478.34;5016508;28;45436;-78
2023/01/15 08:07:44;;;;;;;;;0.00;0.00;;;;;7.34;68.94;100510.13;4999591;28;47672;-76
2023/01/15 08:10:12;;;;;;;;;0.00;0.00;;;;;7.31;68.75;100512.06;5016230;28;45436;-75
2023/01/15 08:15:22;;;;;;;;;0.00;0.00;;;;;7.31;68.92;100514.72;5019398;28;45242;-75
2023/01/15 08:17:49;;;;;;;;;0.00;0.00;;;;;7.32;69.10;100517.31;5015870;28;45526;-74
2023/01/15 08:20:20;;;;;;;;;0.00;0.00;;;;;7.36;68.71;100518.06;5016548;28;45390;-76
2023/01/15 08:22:46;;;;;;;;;0.00;0.00;;;;;7.22;68.95;100495.47;5016002;28;45683;-74
2023/01/15 08:25:18;;;;;;;;;0.00;0.00;;;;;7.38;69.30;100521.56;5016280;28;45462;-75
2023/01/15 08:27:44;;;;;;;;;0.00;0.00;;;;;7.33;68.92;100523.50;5016268;28;46258;-76
2023/01/15 08:30:13;;;;;;;;;0.00;0.00;;;;;7.19;69.06;100506.22;4998740;28;45421;-78
2023/01/15 08:32:39;;;;;;;;;0.00;0.00;;;;;7.19;69.43;100524.00;5015973;28;45415;-79
2023/01/15 08:35:05;;;;;;;;;0.75;0.00;;;;;7.31;68.78;100528.06;4998757;28;45436;-76
2023/01/15 08:37:30;;;;;;;;;0.00;0.00;;;;;7.39;68.88;100540.19;4999111;28;47970;-81
2023/01/15 08:39:58;;;;;;;;;1.00;0.00;;;;;7.34;68.27;100514.59;5016846;28;45392;-85
2023/01/15 08:42:28;;;;;;;;;3.00;0.00;;;;;7.46;68.48;100536.38;5016670;28;45270;-81
2023/01/15 08:44:53;;;;;;;;;0.00;0.00;;;;;7.41;68.81;100532.97;5017228;28;45341;-82
2023/01/15 08:47:19;;;;;;;;;0.50;0.50;;;;;7.45;68.46;100517.75;5016119;28;45336;-79
2023/01/15 08:49:47;;;;;;;;;0.25;0.25;;;;;7.45;68.11;100528.41;4997548;28;45468;-78
2023/01/15 08:52:13;;;;;;;;;1.00;1.00;;;;;7.36;68.47;100507.41;5015835;28;45414;-81
2023/01/15 08:54:38;;;;;;;;;0.75;0.00;;;;;7.21;68.39;100472.38;5005413;28;47621;-76
2023/01/15 08:57:04;;;;;;;;;0.00;0.00;;;;;7.10;67.74;100461.22;5012185;28;45384;-76
2023/01/15 08:59:29;;;;;;;;;0.00;0.00;;;;;7.33;67.35;100487.03;4997379;28;45429;-76
2023/01/15 09:01:55;;;;;;;;;0.50;0.00;;;;;7.38;67.16;100505.56;5014381;28;45379;-78
2023/01/15 09:04:21;;;;;;;;;1.25;0.75;;;;;7.41;67.00;100505.44;5000075;28;45583;-75
2023/01/15 09:06:48;;;;;;;;;0.00;0.00;;;;;7.41;67.42;100506.31;5011071;28;46113;-74
2023/01/15 09:09:13;;;;;;;;;1.25;0.00;;;;;7.46;66.92;100511.47;5015385;28;45289;-74
2023/01/15 09:11:40;;;;;;;;;0.00;0.00;;;;;7.50;67.23;100513.97;4997545;28;45542;-74
2023/01/15 09:14:10;;;;;;;;;0.00;0.00;;;;;7.57;66.43;100520.81;4997523;28;45502;-74
2023/01/15 09:16:36;;;;;;;;;0.25;0.25;;;;;7.65;66.21;100519.69;4997185;28;46754;-77
2023/01/15 09:19:03;;;;;;;;;0.50;0.00;;;;;7.68;66.98;100527.56;4997340;28;46176;-74
2023/01/15 09:21:28;;;;;;;;;0.00;0.00;;;;;7.67;65.91;100533.81;5015658;28;45436;-80
2023/01/15 09:23:54;;;;;;;;;0.00;0.00;;;;;7.57;66.05;100515.47;5015214;28;45608;-77
2023/01/15 09:26:27;;;;;;;;;1.00;1.00;;;;;7.56;65.75;100520.91;5015965;28;46178;-80
2023/01/15 09:28:53;;;;;;;;;0.00;0.00;;;;;7.55;65.78;100545.81;5016100;28;45187;-77
2023/01/15 09:31:19;;;;;;;;;0.00;0.00;;;;;7.58;66.69;100521.69;5010198;28;45499;-80
2023/01/15 09:33:45;;;;;;;;;1.00;1.00;;;;;7.45;66.10;100507.94;5014729;28;45574;-80
2023/01/15 09:36:18;;;;;;;;;0.25;0.25;;;;;7.51;66.10;100530.84;5013304;28;46248;-79
2023/01/15 09:38:46;;;;;;;;;0.00;0.00;;;;;7.40;65.86;100503.72;5013415;28;45600;-78
2023/01/15 09:42:04;;;;;;;;;1.50;0.00;;;;;7.42;65.74;100531.19;5015395;28;45415;-75
2023/01/15 09:44:14;;;;;;;;;1.00;0.00;;;;;7.48;65.46;100530.97;5014607;28;45549;-78
2023/01/15 09:46:49;;;;;;;;;0.00;0.00;;;;;7.53;65.83;100539.66;5010547;28;45527;-77
2023/01/15 09:49:20;;;;;;;;;0.00;0.00;;;;;7.56;65.98;100548.44;4996517;28;45491;-77
2023/01/15 09:52:11;;;;;;;;;0.00;0.00;;;;;7.47;64.49;100526.56;5014302;28;46026;-75
2023/01/15 09:54:47;;;;;;;;;0.50;0.50;;;;;7.40;64.99;100517.06;5012112;28;47807;-77
2023/01/15 09:57:14;;;;;;;;;1.00;0.00;;;;;7.47;64.67;100539.91;5014520;28;45457;-77
2023/01/15 09:59:44;;;;;;;;;0.00;0.00;;;;;7.67;64.87;100552.50;5013184;28;45334;-76
2023/01/15 10:02:37;;;;;;;;;4.75;0.00;;;;;7.55;64.58;100541.38;5014333;28;45335;-75
2023/01/15 10:05:17;;;;;;;;;0.00;0.00;;;;;7.70;64.20;100547.03;4990999;28;46557;-83
2023/01/15 10:07:55;;;;;;;;;0.50;0.50;;;;;7.57;64.49;100531.47;5014568;28;45483;-75
2023/01/15 10:10:28;;;;;;;;;1.00;0.00;;;;;7.71;64.30;100547.00;5014462;28;45498;-77
2023/01/15 10:12:59;;;;;;;;;0.75;0.00;;;;;7.70;64.11;100558.59;5014707;28;45329;-74
2023/01/15 10:15:42;;;;;;;;;0.00;0.00;;;;;7.74;64.16;100560.19;5014552;28;45396;-75
2023/01/15 10:18:14;;;;;;;;;1.50;0.50;;;;;7.65;63.73;100541.03;4996101;28;48299;-75
2023/01/15 10:20:45;;;;;;;;;0.00;0.00;;;;;7.86;64.07;100559.75;5014571;28;45432;-75
2023/01/15 10:23:39;;;;;;;;;1.00;0.00;;;;;7.94;64.04;100560.34;5014364;28;45392;-75
2023/01/15 10:26:15;;;;;;;;;0.25;0.00;;;;;7.97;63.43;100551.34;5010379;28;45218;-76
2023/01/15 10:28:55;;;;;;;;;2.25;0.00;;;;;7.95;64.01;100532.72;5014031;28;45375;-74
2023/01/15 10:31:29;;;;;;;;;3.25;0.25;;;;;8.03;63.59;100551.09;5013712;28;45325;-75
2023/01/15 10:34:28;;;;;;;;;0.00;0.00;;;;;8.08;64.08;100545.59;5014474;28;45414;-75
2023/01/15 10:37:15;;;;;;;;;0.75;0.75;;;;;8.04;63.49;100549.31;5012901;28;47389;-73
2023/01/15 10:40:13;;;;;;;;;0.00;0.00;;;;;8.10;63.52;100538.38;5014703;28;46270;-73
2023/01/15 10:43:06;;;;;;;;;2.00;0.00;;;;;8.30;63.68;100552.72;5012826;28;45458;-74
2023/01/15 10:45:43;;;;;;;;;1.00;0.00;;;;;8.19;62.95;100525.53;5011362;28;45500;-73
2023/01/15 10:48:20;;;;;;;;;0.00;0.00;;;;;8.38;63.08;100555.09;5012724;28;46680;-76
2023/01/15 10:50:48;;;;;;;;;2.50;0.00;;;;;8.20;62.95;100521.94;4996051;28;46981;-76
2023/01/15 10:53:37;;;;;;;;;1.00;0.00;;;;;8.44;63.11;100544.16;5014369;28;45424;-75
2023/01/15 10:56:34;;;;;;;;;0.00;0.00;;;;;8.27;62.57;100511.88;5011610;28;45459;-73
2023/01/15 10:59:15;;;;;;;;;0.25;0.25;;;;;8.44;62.65;100545.97;5002628;28;45549;-76
2023/01/15 11:01:40;;;;;;;;;1.50;0.00;;;;;8.50;62.84;100551.09;5013084;28;45562;-74
2023/01/15 11:04:14;;;;;;;;;0.25;0.00;;;;;8.56;62.41;100550.81;5012792;28;45345;-76
2023/01/15 11:06:40;;;;;;;;;0.00;0.00;;;;;8.62;62.03;100538.06;4993660;28;45472;-75
2023/01/15 11:09:07;;;;;;;;;0.50;0.00;;;;;8.69;62.02;100542.22;4996033;28;47314;-76
2023/01/15 11:20:49;;;;;;;;;0.25;0.00;;;;;9.02;60.63;100515.88;5013456;28;45337;-73
2023/01/15 11:23:18;;;;;;;;;1.00;0.00;;;;;9.03;60.58;100525.63;5013262;28;45351;-74
2023/01/15 11:25:56;;;;;;;;;1.75;0.00;;;;;9.45;59.91;100516.66;5013548;28;45399;-72
2023/01/15 11:28:39;;;;;;;;;0.00;0.00;;;;;10.07;57.84;100516.44;5004289;28;45586;-73
2023/01/15 11:31:09;;;;;;;;;0.25;0.25;;;;;10.83;54.45;100531.50;5013202;28;45539;-74
2023/01/15 11:33:36;;;;;;;;;0.50;0.00;;;;;11.60;52.33;100512.28;5017041;28;45348;-77
2023/01/15 11:36:07;;;;;;;;;0.00;0.00;;;;;12.28;51.71;100521.94;5016789;28;45300;-76
2023/01/15 11:38:44;;;;;;;;;0.00;0.00;;;;;12.63;50.83;100516.38;5016505;28;45510;-78
2023/01/15 11:50:42;;;;;;;;;0.00;0.00;;;;;12.97;48.19;100488.34;5016741;28;45338;-79
2023/01/15 11:52:24;;;;;;;;;1.00;0.00;;;;;11.81;50.24;100510.28;5016589;28;45297;-77
2023/01/15 11:54:54;;;;;;;;;0.00;0.00;;;;;11.48;51.06;100497.72;5016766;28;45365;-80
2023/01/15 11:57:30;;;;;;;;;0.00;0.00;;;;;10.96;52.35;100507.63;4998473;28;46169;-78
2023/01/15 11:59:56;;;;;;;;;1.00;1.00;;;;;10.73;53.22;100502.53;5015244;28;45445;-80
2023/01/15 12:02:37;;;;;;;;;2.00;0.50;;;;;10.57;53.92;100487.22;5013946;28;45454;-76
2023/01/15 12:05:04;;;;;;;;;0.00;0.00;;;;;10.66;54.34;100512.69;5012669;28;46083;-75
2023/01/15 12:07:30;;;;;;;;;1.00;1.00;;;;;10.70;54.32;100503.56;4998160;28;45461;-75
2023/01/15 12:10:20;;;;;;;;;0.00;0.00;;;;;10.55;54.51;100520.41;5016299;28;45552;-74
2023/01/15 12:12:45;;;;;;;;;4.00;0.25;;;;;10.35;54.34;100497.28;4998445;28;47151;-77
2023/01/15 12:15:20;;;;;;;;;0.00;0.00;;;;;10.00;54.47;100458.75;5016430;28;46234;-78
2023/01/15 12:17:54;;;;;;;;;1.00;0.00;;;;;9.99;54.56;100481.13;4998414;28;45366;-76
2023/01/15 12:20:55;;;;;;;;;0.00;0.00;;;;;9.77;55.01;100467.91;5016592;28;45317;-74
2023/01/15 12:23:24;;;;;;;;;0.00;0.00;;;;;9.86;55.48;100475.50;4999345;28;45598;-75
2023/01/15 12:26:02;;;;;;;;;0.00;0.00;;;;;9.77;55.51;100459.88;5011596;28;45320;-76
2023/01/15 12:28:34;;;;;;;;;0.00;0.00;;;;;9.59;55.62;100455.38;5005639;28;45419;-77
2023/01/15 12:31:09;;;;;;;;;0.25;0.25;;;;;9.61;55.77;100469.53;5015778;28;45221;-75
2023/01/15 12:33:50;;;;;;;;;0.00;0.00;;;;;9.64;56.41;100463.16;5016327;28;45271;-77
2023/01/15 12:36:24;;;;;;;;;1.50;0.00;;;;;9.41;55.86;100424.97;5014094;28;46299;-75
2023/01/15 12:38:57;;;;;;;;;0.00;0.00;;;;;9.65;56.07;100460.44;5009152;28;45352;-77
2023/01/15 12:47:24;;;;;;;;;2.00;0.00;;;;;9.71;56.07;100433.38;5015497;28;45415;-78
2023/01/15 12:49:57;;;;;;;;;0.00;0.00;;;;;9.69;55.63;100405.81;5016195;28;45455;-77
2023/01/15 12:52:30;;;;;;;;;0.00;0.00;;;;;9.85;55.14;100446.13;5014382;28;45349;-77
2023/01/15 12:55:13;;;;;;;;;0.00;0.00;;;;;9.81;54.94;100455.22;5016034;28;45318;-75
2023/01/15 12:57:43;;;;;;;;;1.00;0.00;;;;;9.64;55.18;100433.72;4997678;28;47008;-77
2023/01/15 13:00:17;;;;;;;;;0.75;0.75;;;;;9.63;54.85;100450.72;5015684;28;45472;-76
2023/01/15 13:03:10;;;;;;;;;0.00;0.00;;;;;9.70;55.25;100436.09;5015489;28;45432;-77
2023/01/15 13:05:46;;;;;;;;;0.00;0.00;;;;;9.86;55.13;100438.03;5015447;28;45452;-76
2023/01/15 13:08:38;;;;;;;;;4.50;1.00;;;;;9.81;55.02;100413.25;5015771;28;45981;-73
2023/01/15 13:11:03;;;;;;;;;0.00;0.00;;;;;9.76;54.16;100415.28;5015930;28;45332;-74
2023/01/15 13:13:35;;;;;;;;;0.00;0.00;;;;;9.89;54.13;100418.22;5015279;28;45257;-75
2023/01/15 13:16:13;;;;;;;;;0.50;0.00;;;;;9.85;53.70;100395.25;5015200;28;45358;-74
2023/01/15 13:19:22;;;;;;;;;0.00;0.00;;;;;9.94;53.43;100394.81;5015364;28;46163;-74
2023/01/15 13:21:51;;;;;;;;;0.00;0.00;;;;;9.87;52.91;100375.47;4934664;28;45422;-75
2023/01/15 13:24:44;;;;;;;;;0.25;0.25;;;;;10.03;52.47;100391.69;5005015;28;45670;-75
2023/01/15 13:27:28;;;;;;;;;1.50;0.00;;;;;10.09;52.90;100420.81;5015199;28;45532;-73
2023/01/15 13:29:53;;;;;;;;;0.75;0.00;;;;;9.93;52.71;100387.72;5002391;28;45329;-74
2023/01/15 13:32:22;;;;;;;;;0.00;0.00;;;;;9.83;53.35;100398.00;5014759;28;45298;-76
2023/01/15 13:34:47;;;;;;;;;0.00;0.00;;;;;9.97;53.52;100391.94;5015322;28;45337;-76
2023/01/15 13:37:44;;;;;;;;;0.00;0.00;;;;;10.06;53.49;100404.03;5015026;28;45458;-74
2023/01/15 13:40:16;;;;;;;;;0.50;0.50;;;;;10.09;53.76;100396.72;5005904;28;46402;-72
2023/01/15 13:42:46;;;;;;;;;0.00;0.00;;;;;10.11;53.37;100384.13;5015158;28;45343;-74
2023/01/15 13:45:17;;;;;;;;;0.00;0.00;;;;;10.15;52.94;100393.72;5012018;28;45448;-74
2023/01/15 13:47:47;;;;;;;;;2.00;0.25;;;;;10.12;53.35;100409.09;5014893;28;45515;-75
2023/01/15 13:50:30;;;;;;;;;0.00;0.00;;;;;10.08;53.23;100419.09;5014890;28;46244;-74
2023/01/15 13:53:21;;;;;;;;;0.50;0.50;;;;;10.04;52.99;100413.94;4996555;28;45830;-75
2023/01/15 13:55:54;;;;;;;;;0.50;0.00;;;;;9.84;52.95;100402.41;5007595;28;45269;-74
2023/01/15 13:58:33;;;;;;;;;0.00;0.00;;;;;9.78;53.80;100391.97;5007043;28;45480;-76
2023/01/15 14:01:22;;;;;;;;;2.75;1.00;;;;;9.75;53.44;100394.81;4994146;28;47436;-75
2023/01/15 14:04:01;;;;;;;;;0.00;0.00;;;;;9.90;53.81;100382.50;5001178;28;45502;-74
2023/01/15 14:06:45;;;;;;;;;0.00;0.00;;;;;9.93;54.17;100371.66;5014494;28;45439;-74
2023/01/15 14:09:30;;;;;;;;;0.50;0.00;;;;;10.01;53.51;100373.94;5014293;28;45427;-75
2023/01/15 14:12:17;;;;;;;;;0.00;0.00;;;;;10.07;53.76;100368.28;5014247;28;46067;-80
2023/01/15 14:15:07;;;;;;;;;0.50;0.50;;;;;9.92;54.50;100350.28;5014659;28;45229;-77
2023/01/15 14:18:03;;;;;;;;;0.75;0.00;;;;;10.01;53.21;100352.50;5014485;28;45336;-75
2023/01/15 14:20:46;;;;;;;;;0.00;0.00;;;;;9.86;53.67;100394.31;5014524;28;45574;-73
2023/01/15 14:23:11;;;;;;;;;1.00;0.00;;;;;9.87;53.71;100380.81;4996289;28;47702;-77
2023/01/15 14:25:55;;;;;;;;;1.25;0.75;;;;;9.88;53.93;100365.63;5014210;28;45387;-74
2023/01/15 14:28:26;;;;;;;;;1.00;0.00;;;;;9.91;54.17;100364.63;5026164;28;45374;-73
2023/01/15 14:31:35;;;;;;;;;1.00;1.00;;;;;9.95;53.23;100366.22;5013982;28;45576;-75
2023/01/15 14:34:21;;;;;;;;;1.00;0.00;;;;;9.83;53.60;100370.34;5014295;28;45249;-75
2023/01/15 14:37:03;;;;;;;;;0.00;0.00;;;;;9.87;54.17;100354.03;5014252;28;45459;-74
2023/01/15 14:39:45;;;;;;;;;2.00;0.00;;;;;10.23;53.24;100375.50;5013007;28;45297;-74
2023/01/15 14:45:27;;;;;;;;;2.00;0.00;;;;;10.47;53.03;100354.63;5010904;28;45343;-77
2023/01/15 14:47:58;;;;;;;;;0.50;0.00;;;;;10.40;53.50;100334.44;5014629;28;45211;-74
2023/01/15 14:50:37;;;;;;;;;0.00;0.00;;;;;10.50;53.30;100369.69;5013938;28;45323;-72
2023/01/15 14:53:16;;;;;;;;;0.00;0.00;;;;;10.41;53.45;100362.09;5014916;28;45234;-76
2023/01/15 14:55:52;;;;;;;;;0.00;0.00;;;;;10.21;53.57;100314.88;4995955;28;47134;-78
2023/01/15 14:58:37;;;;;;;;;1.00;1.00;;;;;10.36;53.93;100356.13;5014081;28;45336;-72
2023/01/15 15:01:24;;;;;;;;;0.00;0.00;;;;;10.09;54.17;100353.88;4995968;28;45398;-75
2023/01/15 15:03:57;;;;;;;;;0.00;0.00;;;;;10.09;54.47;100342.28;5014842;28;45523;-80
2023/01/15 15:06:26;;;;;;;;;0.00;0.00;;;;;10.08;54.56;100341.41;5015815;28;47404;-74
2023/01/15 15:09:00;;;;;;;;;0.00;0.00;;;;;10.04;54.02;100355.88;5017590;28;45626;-75
2023/01/15 15:14:28;;;;;;;;;0.75;0.75;;;;;9.92;54.65;100321.69;5017688;28;45498;-75
2023/01/15 15:16:59;;;;;;;;;0.00;0.00;;;;;9.99;54.58;100319.59;5016860;28;45630;-74
2023/01/15 15:19:24;;;;;;;;;0.00;0.00;;;;;9.98;54.74;100331.22;5017186;28;45475;-76
2023/01/15 15:21:51;;;;;;;;;1.00;0.50;;;;;9.97;55.25;100319.66;5017170;28;45317;-77
2023/01/15 15:24:25;;;;;;;;;0.00;0.00;;;;;10.01;55.12;100304.31;5016966;28;45435;-76
2023/01/15 15:26:50;;;;;;;;;0.50;0.00;;;;;9.91;55.06;100311.94;5017002;28;45516;-77
2023/01/15 15:29:19;;;;;;;;;1.00;0.00;;;;;9.90;55.22;100314.69;5017015;28;45336;-74
2023/01/15 15:31:58;;;;;;;;;0.75;0.75;;;;;9.92;55.59;100300.28;4998840;28;45495;-76
2023/01/15 15:34:31;;;;;;;;;0.00;0.00;;;;;9.93;55.57;100295.78;5016485;28;45210;-75
2023/01/15 15:36:58;;;;;;;;;0.75;0.00;;;;;9.78;55.83;100292.09;5016687;28;45420;-75
2023/01/15 15:39:41;;;;;;;;;0.50;0.50;;;;;9.82;56.06;100294.53;5017052;28;45260;-75
2023/01/15 15:50:55;;;;;;;;;0.00;0.00;;;;;9.69;56.05;100277.34;5016664;28;45379;-75
2023/01/15 15:53:21;;;;;;;;;0.00;0.00;;;;;9.68;56.28;100267.59;5016637;28;45315;-77
2023/01/15 15:55:47;;;;;;;;;3.00;1.00;;;;;9.42;56.20;100228.72;5016446;28;45475;-76
2023/01/15 15:58:27;;;;;;;;;0.00;0.00;;;;;9.54;56.53;100243.28;5016731;28;45380;-74
2023/01/15 16:00:54;;;;;;;;;1.00;0.00;;;;;9.57;56.40;100250.31;5016823;28;45327;-78
2023/01/15 16:03:25;;;;;;;;;0.25;0.25;;;;;9.51;56.47;100242.59;5016773;28;45501;-78
2023/01/15 16:05:58;;;;;;;;;1.50;0.00;;;;;9.58;56.36;100230.63;4998669;28;46954;-76
2023/01/15 16:08:25;;;;;;;;;1.00;1.00;;;;;9.56;56.30;100252.13;5016408;28;45409;-74
2023/01/15 16:10:54;;;;;;;;;2.50;1.25;;;;;9.56;56.50;100237.88;5016808;28;45321;-73
2023/01/15 16:13:29;;;;;;;;;4.25;1.00;;;;;9.48;56.83;100241.81;5016561;28;45340;-76
2023/01/15 16:15:59;;;;;;;;;0.25;0.00;;;;;9.55;57.01;100257.53;5016102;28;45453;-76
2023/01/15 16:18:31;;;;;;;;;0.50;0.00;;;;;9.37;55.99;100241.44;5016442;28;46251;-74
2023/01/15 16:20:57;;;;;;;;;0.50;0.00;;;;;9.36;56.23;100253.09;5016438;28;45364;-74
2023/01/15 16:23:25;;;;;;;;;2.50;1.00;;;;;9.32;56.66;100254.19;5016461;28;45539;-75
2023/01/15 16:26:21;;;;;;;;;1.00;1.00;;;;;9.37;56.90;100262.84;5016008;28;45301;-76
2023/01/15 16:28:59;;;;;;;;;0.75;0.25;;;;;9.20;56.70;100241.41;5007254;28;45442;-73
2023/01/15 16:31:25;;;;;;;;;0.50;0.50;;;;;9.21;56.81;100251.16;5015406;28;45511;-72
2023/01/15 16:33:58;;;;;;;;;3.00;0.50;;;;;9.27;57.35;100258.88;5016546;28;45187;-73
2023/01/15 16:36:25;;;;;;;;;0.75;0.75;;;;;9.31;57.22;100257.81;5016042;28;45569;-71
2023/01/15 16:38:52;;;;;;;;;0.00;0.00;;;;;9.23;57.72;100262.66;5015939;28;46402;-73
2023/01/15 16:41:22;;;;;;;;;2.75;1.00;;;;;9.20;58.27;100264.59;5015213;28;45667;-72
2023/01/15 16:43:58;;;;;;;;;1.75;1.00;;;;;9.17;59.02;100268.31;5012625;28;45296;-72
2023/01/15 16:46:27;;;;;;;;;1.25;1.00;;;;;9.20;58.85;100260.13;5015780;28;45602;-71
2023/01/15 16:49:20;;;;;;;;;4.25;1.00;;;;;9.18;59.60;100262.03;5016418;28;45998;-77
2023/01/15 16:51:46;;;;;;;;;1.00;1.00;;;;;9.18;60.15;100267.38;5015856;28;45305;-74
2023/01/15 16:54:30;;;;;;;;;1.25;1.25;;;;;9.22;60.42;100257.38;5016190;28;45271;-74
2023/01/15 16:57:28;;;;;;;;;1.50;1.50;;;;;9.09;61.37;100247.28;5017198;28;45557;-81
2023/01/15 16:59:57;;;;;;;;;2.00;1.00;;;;;9.11;61.39;100258.75;5015668;28;46049;-75
2023/01/15 17:02:28;;;;;;;;;3.00;1.25;;;;;9.03;62.07;100236.00;5015499;28;45255;-74
2023/01/15 17:04:54;;;;;;;;;1.75;0.75;;;;;8.95;62.47;100227.47;5015782;28;45250;-75
2023/01/15 17:07:23;;;;;;;;;1.75;0.50;;;;;8.92;62.43;100227.63;4997949;28;45403;-75
2023/01/15 17:09:51;;;;;;;;;1.00;1.00;;;;;8.89;62.84;100227.78;5014100;28;46506;-76
2023/01/15 17:12:29;;;;;;;;;1.50;1.00;;;;;8.93;62.43;100218.69;5015515;28;45371;-73
2023/01/15 17:15:20;;;;;;;;;3.50;1.00;;;;;8.83;62.51;100201.34;5015673;28;45377;-74
2023/01/15 17:17:55;;;;;;;;;3.00;1.00;;;;;8.80;62.56;100218.38;5008829;28;45250;-73
2023/01/15 17:20:26;;;;;;;;;2.00;2.00;;;;;8.81;62.54;100205.88;5006875;28;45427;-74
2023/01/15 17:22:53;;;;;;;;;2.50;2.00;;;;;8.62;62.21;100160.44;5014043;28;45334;-73
2023/01/15 17:25:23;;;;;;;;;0.00;0.00;;;;;8.76;61.72;100195.44;5010752;28;45345;-75
2023/01/15 17:27:48;;;;;;;;;0.00;0.00;;;;;8.72;60.80;100218.75;5014250;28;45594;-73
2023/01/15 17:30:14;;;;;;;;;1.75;0.00;;;;;8.58;60.82;100183.78;5014773;28;45478;-73
2023/01/15 17:32:40;;;;;;;;;1.25;1.25;;;;;8.71;60.55;100184.94;5015068;28;45418;-74
2023/01/15 17:35:21;;;;;;;;;1.00;1.00;;;;;8.88;60.18;100197.50;5015215;28;45390;-74
2023/01/15 17:37:46;;;;;;;;;0.00;0.00;;;;;8.91;59.67;100192.00;5014904;28;45279;-74
2023/01/15 17:40:12;;;;;;;;;1.00;1.00;;;;;8.97;59.99;100196.19;5005975;28;46299;-74
2023/01/15 17:42:37;;;;;;;;;1.00;1.00;;;;;9.00;59.59;100180.00;5002180;28;45440;-73
2023/01/15 17:45:03;;;;;;;;;2.00;2.00;;;;;8.74;60.15;100170.56;5007228;28;45547;-74
2023/01/15 17:47:28;;;;;;;;;1.50;1.00;;;;;8.84;60.62;100187.03;5015553;28;45519;-72
2023/01/15 17:49:53;;;;;;;;;0.00;0.00;;;;;8.69;61.48;100178.78;5015194;28;46180;-72
2023/01/15 17:52:19;;;;;;;;;0.25;0.25;;;;;8.75;61.41;100183.00;5008296;28;45426;-74
2023/01/15 18:05:42;;;;;;;;;1.00;1.00;;;;;8.57;61.28;100173.16;5014644;28;45479;-73